Estación Meteorológica Peña el Pijo (Robertgarden) [ 09/24/17 17:48:12 CEST ]

Fecha Hora Presion(HPa) Temp (°C) Humedad % Rocio (°C) Viento ( m/s) Direccion Lluvia 1Hora(mm) Lluvia 24H(mm) LLuvia Total(mm)
2017-Aug-30 01:01:43 1009.200 15.3 75 10.9       1.03 1452.47
2017-Aug-30 02:01:46 1009.400 13.9 78 10.1       1.03 1452.47
2017-Aug-30 03:01:09 1009.100 12.8 81 9.6       1.03 1452.47
2017-Aug-30 04:02:52 1009.000 13.3 84 10.6       1.03 1452.47
2017-Aug-30 05:01:08 1009.100 13.6 84 10.9       1.03 1452.47
2017-Aug-30 06:09:29 1008.900 13.3 85 10.8       1.03 1452.47
2017-Aug-30 07:01:40 1009.100 13.3 86 11.0       1.03 1452.47
2017-Aug-30 08:01:37 1009.600 13.6 86 11.3       1.03 1452.47
2017-Aug-30 09:01:38 1009.600 13.8 86 11.5       1.03 1452.47
2017-Aug-30 10:01:39 1010.300 14.1 86 11.8       1.03 1452.47
2017-Aug-30 11:01:31 1010.800 14.2 87 12.1       1.03 1452.47
2017-Aug-30 12:01:40 1011.700 14.6 87 12.5       1.03 1452.47
2017-Aug-30 13:01:48 1010.900 15.4 86 13.1       1.03 1452.47
2017-Aug-30 14:01:46 1010.100 17.4 82 14.3       1.03 1452.47
2017-Aug-30 15:01:50 1009.900 20.6 70 14.9       1.03 1452.47
2017-Aug-30 16:01:30 1009.500 24.3 58 15.8       0.51 1452.47
2017-Aug-30 17:01:32 1008.700 25.5 50 14.3         1452.47
2017-Aug-30 18:01:31 1008.900 23.0 51 12.4         1452.47
2017-Aug-30 19:01:27 1009.000 23.3 49 12.0         1452.47
2017-Aug-30 20:01:54 1009.200 21.1 54 11.4         1452.47
2017-Aug-30 21:01:09 1009.200 18.7 61 11.0         1452.47
2017-Aug-30 22:01:24 1009.700 17.9 68 11.9         1452.47
2017-Aug-30 23:01:43 1010.300 17.2 71 11.9         1452.47

Temperatura Máxima:25°    Temperatura Mínima:12°
Presión Máxima:1011.700 Hpa    Presión Mínima:1008.700 Hpa


Volver